sensor_id;sensor_type;location;lat;lon;timestamp;P1;durP1;ratioP1;P2;durP2;ratioP2
80647;SDS011;70012;0.000;0.000;2023-07-16T00:02:02;5.63;;;2.30;;
80647;SDS011;70012;0.000;0.000;2023-07-16T00:04:29;3.17;;;1.80;;
80647;SDS011;70012;0.000;0.000;2023-07-16T00:06:57;4.00;;;1.83;;
80647;SDS011;70012;0.000;0.000;2023-07-16T00:09:23;2.53;;;1.80;;
80647;SDS011;70012;0.000;0.000;2023-07-16T00:11:50;5.13;;;1.80;;
80647;SDS011;70012;0.000;0.000;2023-07-16T00:14:17;2.95;;;1.80;;
80647;SDS011;70012;0.000;0.000;2023-07-16T00:16:43;5.88;;;2.00;;
80647;SDS011;70012;0.000;0.000;2023-07-16T00:19:10;7.45;;;2.15;;
80647;SDS011;70012;0.000;0.000;2023-07-16T00:21:38;3.45;;;1.90;;
80647;SDS011;70012;0.000;0.000;2023-07-16T00:24:05;4.57;;;2.17;;
80647;SDS011;70012;0.000;0.000;2023-07-16T00:26:31;4.13;;;1.95;;
80647;SDS011;70012;0.000;0.000;2023-07-16T00:28:58;3.05;;;1.65;;
80647;SDS011;70012;0.000;0.000;2023-07-16T00:31:25;3.05;;;2.10;;
80647;SDS011;70012;0.000;0.000;2023-07-16T00:33:51;3.53;;;1.42;;
80647;SDS011;70012;0.000;0.000;2023-07-16T00:36:18;3.67;;;1.80;;
80647;SDS011;70012;0.000;0.000;2023-07-16T00:38:45;3.72;;;1.65;;
80647;SDS011;70012;0.000;0.000;2023-07-16T00:41:15;3.72;;;1.70;;
80647;SDS011;70012;0.000;0.000;2023-07-16T00:43:42;2.92;;;1.90;;
80647;SDS011;70012;0.000;0.000;2023-07-16T00:46:09;3.47;;;2.00;;
80647;SDS011;70012;0.000;0.000;2023-07-16T00:48:37;3.95;;;1.80;;
80647;SDS011;70012;0.000;0.000;2023-07-16T00:51:03;3.05;;;1.70;;
80647;SDS011;70012;0.000;0.000;2023-07-16T00:53:30;5.97;;;2.00;;
80647;SDS011;70012;0.000;0.000;2023-07-16T00:55:57;2.85;;;1.60;;
80647;SDS011;70012;0.000;0.000;2023-07-16T00:58:24;4.68;;;1.50;;
80647;SDS011;70012;0.000;0.000;2023-07-16T01:00:52;2.85;;;1.70;;
80647;SDS011;70012;0.000;0.000;2023-07-16T01:03:19;3.38;;;1.90;;
80647;SDS011;70012;0.000;0.000;2023-07-16T01:05:48;2.40;;;1.70;;
80647;SDS011;70012;0.000;0.000;2023-07-16T01:08:22;3.63;;;2.10;;
80647;SDS011;70012;0.000;0.000;2023-07-16T01:10:57;2.45;;;1.80;;
80647;SDS011;70012;0.000;0.000;2023-07-16T01:13:24;3.97;;;1.83;;
80647;SDS011;70012;0.000;0.000;2023-07-16T01:15:51;6.00;;;2.15;;
80647;SDS011;70012;0.000;0.000;2023-07-16T01:18:18;2.67;;;1.50;;
80647;SDS011;70012;0.000;0.000;2023-07-16T01:20:45;4.22;;;2.00;;
80647;SDS011;70012;0.000;0.000;2023-07-16T01:29:12;4.90;;;1.95;;
80647;SDS011;70012;0.000;0.000;2023-07-16T01:31:55;3.83;;;2.00;;
80647;SDS011;70012;0.000;0.000;2023-07-16T01:34:23;2.70;;;1.90;;
80647;SDS011;70012;0.000;0.000;2023-07-16T01:36:53;2.83;;;1.73;;
80647;SDS011;70012;0.000;0.000;2023-07-16T01:39:20;2.25;;;1.60;;
80647;SDS011;70012;0.000;0.000;2023-07-16T01:41:47;3.50;;;1.75;;
80647;SDS011;70012;0.000;0.000;2023-07-16T01:44:14;5.13;;;2.10;;
80647;SDS011;70012;0.000;0.000;2023-07-16T01:46:40;3.53;;;1.70;;
80647;SDS011;70012;0.000;0.000;2023-07-16T01:49:07;5.43;;;1.85;;
80647;SDS011;70012;0.000;0.000;2023-07-16T01:51:34;4.97;;;2.00;;
80647;SDS011;70012;0.000;0.000;2023-07-16T01:54:00;3.55;;;1.63;;
80647;SDS011;70012;0.000;0.000;2023-07-16T01:56:27;5.60;;;1.92;;
80647;SDS011;70012;0.000;0.000;2023-07-16T01:58:53;3.65;;;2.00;;
80647;SDS011;70012;0.000;0.000;2023-07-16T02:01:20;3.90;;;1.77;;
80647;SDS011;70012;0.000;0.000;2023-07-16T02:03:47;3.50;;;1.88;;
80647;SDS011;70012;0.000;0.000;2023-07-16T02:06:13;4.07;;;1.70;;
80647;SDS011;70012;0.000;0.000;2023-07-16T02:08:41;4.30;;;2.20;;
80647;SDS011;70012;0.000;0.000;2023-07-16T02:11:08;3.45;;;1.70;;
80647;SDS011;70012;0.000;0.000;2023-07-16T02:13:34;2.35;;;1.65;;
80647;SDS011;70012;0.000;0.000;2023-07-16T02:16:01;4.10;;;1.90;;
80647;SDS011;70012;0.000;0.000;2023-07-16T02:18:28;4.53;;;1.90;;
80647;SDS011;70012;0.000;0.000;2023-07-16T02:20:54;3.00;;;1.80;;
80647;SDS011;70012;0.000;0.000;2023-07-16T02:23:21;5.78;;;2.40;;
80647;SDS011;70012;0.000;0.000;2023-07-16T02:25:47;3.10;;;1.77;;
80647;SDS011;70012;0.000;0.000;2023-07-16T02:28:14;5.32;;;2.00;;
80647;SDS011;70012;0.000;0.000;2023-07-16T02:30:41;3.10;;;2.13;;
80647;SDS011;70012;0.000;0.000;2023-07-16T02:33:08;4.75;;;2.30;;
80647;SDS011;70012;0.000;0.000;2023-07-16T02:35:35;4.15;;;2.05;;
80647;SDS011;70012;0.000;0.000;2023-07-16T02:38:01;4.43;;;2.15;;
80647;SDS011;70012;0.000;0.000;2023-07-16T02:40:28;5.60;;;2.08;;
80647;SDS011;70012;0.000;0.000;2023-07-16T02:42:54;3.83;;;1.90;;
80647;SDS011;70012;0.000;0.000;2023-07-16T02:45:21;4.38;;;1.90;;
80647;SDS011;70012;0.000;0.000;2023-07-16T02:47:47;4.40;;;1.70;;
80647;SDS011;70012;0.000;0.000;2023-07-16T02:50:14;4.10;;;1.98;;
80647;SDS011;70012;0.000;0.000;2023-07-16T02:52:40;3.63;;;1.73;;
80647;SDS011;70012;0.000;0.000;2023-07-16T02:55:07;2.63;;;1.98;;
80647;SDS011;70012;0.000;0.000;2023-07-16T02:57:34;6.57;;;1.98;;
80647;SDS011;70012;0.000;0.000;2023-07-16T03:00:00;4.40;;;1.75;;
80647;SDS011;70012;0.000;0.000;2023-07-16T03:02:27;4.13;;;2.05;;
80647;SDS011;70012;0.000;0.000;2023-07-16T03:04:54;3.40;;;2.00;;
80647;SDS011;70012;0.000;0.000;2023-07-16T03:07:20;3.75;;;1.83;;
80647;SDS011;70012;0.000;0.000;2023-07-16T03:09:47;4.50;;;1.83;;
80647;SDS011;70012;0.000;0.000;2023-07-16T03:12:13;8.40;;;2.13;;
80647;SDS011;70012;0.000;0.000;2023-07-16T03:14:40;4.10;;;1.90;;
80647;SDS011;70012;0.000;0.000;2023-07-16T03:17:07;4.05;;;2.10;;
80647;SDS011;70012;0.000;0.000;2023-07-16T03:19:33;5.85;;;2.10;;
80647;SDS011;70012;0.000;0.000;2023-07-16T03:22:00;6.50;;;2.47;;
80647;SDS011;70012;0.000;0.000;2023-07-16T03:24:26;6.55;;;1.85;;
80647;SDS011;70012;0.000;0.000;2023-07-16T03:29:37;6.95;;;2.17;;
80647;SDS011;70012;0.000;0.000;2023-07-16T03:32:04;4.13;;;1.98;;
80647;SDS011;70012;0.000;0.000;2023-07-16T03:34:31;2.72;;;1.70;;
80647;SDS011;70012;0.000;0.000;2023-07-16T03:36:57;4.65;;;1.90;;
80647;SDS011;70012;0.000;0.000;2023-07-16T03:39:24;6.38;;;2.10;;
80647;SDS011;70012;0.000;0.000;2023-07-16T03:41:51;4.53;;;2.17;;
80647;SDS011;70012;0.000;0.000;2023-07-16T03:44:17;2.75;;;1.70;;
80647;SDS011;70012;0.000;0.000;2023-07-16T03:46:44;5.22;;;2.10;;
80647;SDS011;70012;0.000;0.000;2023-07-16T03:49:10;3.20;;;1.90;;
80647;SDS011;70012;0.000;0.000;2023-07-16T03:51:37;5.15;;;2.10;;
80647;SDS011;70012;0.000;0.000;2023-07-16T03:54:06;8.38;;;3.50;;
80647;SDS011;70012;0.000;0.000;2023-07-16T03:56:33;5.10;;;2.13;;
80647;SDS011;70012;0.000;0.000;2023-07-16T04:08:45;5.25;;;2.00;;
80647;SDS011;70012;0.000;0.000;2023-07-16T04:11:12;4.15;;;2.03;;
80647;SDS011;70012;0.000;0.000;2023-07-16T04:13:39;4.45;;;2.05;;
80647;SDS011;70012;0.000;0.000;2023-07-16T04:16:05;5.45;;;2.33;;
80647;SDS011;70012;0.000;0.000;2023-07-16T04:18:32;4.80;;;2.15;;
80647;SDS011;70012;0.000;0.000;2023-07-16T04:23:25;4.05;;;1.90;;
80647;SDS011;70012;0.000;0.000;2023-07-16T04:25:52;4.18;;;2.33;;
80647;SDS011;70012;0.000;0.000;2023-07-16T04:28:20;6.55;;;2.50;;
80647;SDS011;70012;0.000;0.000;2023-07-16T04:30:46;4.70;;;2.08;;
80647;SDS011;70012;0.000;0.000;2023-07-16T04:33:13;4.57;;;2.03;;
80647;SDS011;70012;0.000;0.000;2023-07-16T04:35:40;5.45;;;2.47;;
80647;SDS011;70012;0.000;0.000;2023-07-16T04:40:34;5.03;;;2.10;;
80647;SDS011;70012;0.000;0.000;2023-07-16T04:45:27;6.43;;;2.20;;
80647;SDS011;70012;0.000;0.000;2023-07-16T04:50:20;5.43;;;2.35;;
80647;SDS011;70012;0.000;0.000;2023-07-16T04:52:47;5.57;;;2.25;;
80647;SDS011;70012;0.000;0.000;2023-07-16T04:55:13;8.77;;;2.30;;
80647;SDS011;70012;0.000;0.000;2023-07-16T04:57:40;4.95;;;2.45;;
80647;SDS011;70012;0.000;0.000;2023-07-16T05:00:06;4.90;;;2.40;;
80647;SDS011;70012;0.000;0.000;2023-07-16T05:02:34;5.10;;;2.55;;
80647;SDS011;70012;0.000;0.000;2023-07-16T05:05:01;6.43;;;2.72;;
80647;SDS011;70012;0.000;0.000;2023-07-16T05:07:27;4.55;;;2.55;;
80647;SDS011;70012;0.000;0.000;2023-07-16T05:09:54;4.90;;;2.55;;
80647;SDS011;70012;0.000;0.000;2023-07-16T05:12:20;6.10;;;2.55;;
80647;SDS011;70012;0.000;0.000;2023-07-16T05:14:47;7.68;;;3.03;;
80647;SDS011;70012;0.000;0.000;2023-07-16T05:17:14;6.57;;;2.35;;
80647;SDS011;70012;0.000;0.000;2023-07-16T05:19:41;6.60;;;2.58;;
80647;SDS011;70012;0.000;0.000;2023-07-16T05:22:08;6.50;;;2.67;;
80647;SDS011;70012;0.000;0.000;2023-07-16T05:24:35;11.70;;;2.55;;
80647;SDS011;70012;0.000;0.000;2023-07-16T05:29:28;5.32;;;2.90;;
80647;SDS011;70012;0.000;0.000;2023-07-16T05:31:55;8.93;;;3.28;;
80647;SDS011;70012;0.000;0.000;2023-07-16T05:34:21;3.90;;;2.53;;
80647;SDS011;70012;0.000;0.000;2023-07-16T05:36:48;4.90;;;2.47;;
80647;SDS011;70012;0.000;0.000;2023-07-16T05:39:15;7.50;;;3.10;;
80647;SDS011;70012;0.000;0.000;2023-07-16T05:41:42;5.78;;;3.13;;
80647;SDS011;70012;0.000;0.000;2023-07-16T05:44:09;6.72;;;2.58;;
80647;SDS011;70012;0.000;0.000;2023-07-16T05:46:36;6.05;;;2.72;;
80647;SDS011;70012;0.000;0.000;2023-07-16T05:49:03;6.32;;;2.97;;
80647;SDS011;70012;0.000;0.000;2023-07-16T05:51:30;7.72;;;2.97;;
80647;SDS011;70012;0.000;0.000;2023-07-16T05:53:56;6.05;;;2.97;;
80647;SDS011;70012;0.000;0.000;2023-07-16T05:56:23;7.97;;;3.08;;
80647;SDS011;70012;0.000;0.000;2023-07-16T05:58:50;8.43;;;3.47;;
80647;SDS011;70012;0.000;0.000;2023-07-16T06:01:16;6.65;;;3.17;;
80647;SDS011;70012;0.000;0.000;2023-07-16T06:03:43;6.65;;;3.50;;
80647;SDS011;70012;0.000;0.000;2023-07-16T06:06:10;7.43;;;3.00;;
80647;SDS011;70012;0.000;0.000;2023-07-16T06:08:36;5.28;;;2.78;;
80647;SDS011;70012;0.000;0.000;2023-07-16T06:11:03;6.93;;;2.83;;
80647;SDS011;70012;0.000;0.000;2023-07-16T06:13:30;5.03;;;2.95;;
80647;SDS011;70012;0.000;0.000;2023-07-16T06:15:57;7.10;;;3.45;;
80647;SDS011;70012;0.000;0.000;2023-07-16T06:18:23;5.50;;;2.80;;
80647;SDS011;70012;0.000;0.000;2023-07-16T06:20:50;6.03;;;3.08;;
80647;SDS011;70012;0.000;0.000;2023-07-16T06:23:18;6.57;;;3.28;;
80647;SDS011;70012;0.000;0.000;2023-07-16T06:25:44;9.73;;;3.63;;
80647;SDS011;70012;0.000;0.000;2023-07-16T06:28:13;6.55;;;3.38;;
80647;SDS011;70012;0.000;0.000;2023-07-16T06:30:40;7.70;;;3.53;;
80647;SDS011;70012;0.000;0.000;2023-07-16T06:33:07;12.45;;;3.88;;
80647;SDS011;70012;0.000;0.000;2023-07-16T06:35:34;8.45;;;3.40;;
80647;SDS011;70012;0.000;0.000;2023-07-16T06:38:00;8.80;;;3.90;;
80647;SDS011;70012;0.000;0.000;2023-07-16T06:40:28;4.85;;;3.08;;
80647;SDS011;70012;0.000;0.000;2023-07-16T06:42:55;9.25;;;3.95;;
80647;SDS011;70012;0.000;0.000;2023-07-16T06:45:22;6.10;;;3.47;;
80647;SDS011;70012;0.000;0.000;2023-07-16T06:47:49;8.70;;;3.75;;
80647;SDS011;70012;0.000;0.000;2023-07-16T06:50:15;7.35;;;3.08;;
80647;SDS011;70012;0.000;0.000;2023-07-16T06:52:42;5.82;;;3.42;;
80647;SDS011;70012;0.000;0.000;2023-07-16T06:55:09;6.03;;;3.42;;
80647;SDS011;70012;0.000;0.000;2023-07-16T06:57:35;9.18;;;4.00;;
80647;SDS011;70012;0.000;0.000;2023-07-16T07:00:02;8.40;;;3.58;;
80647;SDS011;70012;0.000;0.000;2023-07-16T07:02:30;8.13;;;3.72;;
80647;SDS011;70012;0.000;0.000;2023-07-16T07:04:57;7.57;;;3.90;;
80647;SDS011;70012;0.000;0.000;2023-07-16T07:07:24;6.82;;;3.38;;
80647;SDS011;70012;0.000;0.000;2023-07-16T07:09:51;9.05;;;3.40;;
80647;SDS011;70012;0.000;0.000;2023-07-16T07:12:17;8.98;;;3.72;;
80647;SDS011;70012;0.000;0.000;2023-07-16T07:14:46;6.25;;;3.55;;
80647;SDS011;70012;0.000;0.000;2023-07-16T07:17:13;8.60;;;3.60;;
80647;SDS011;70012;0.000;0.000;2023-07-16T07:19:41;6.93;;;3.63;;
80647;SDS011;70012;0.000;0.000;2023-07-16T07:22:08;8.50;;;3.63;;
80647;SDS011;70012;0.000;0.000;2023-07-16T07:24:34;7.88;;;4.00;;
80647;SDS011;70012;0.000;0.000;2023-07-16T07:27:01;10.18;;;3.58;;
80647;SDS011;70012;0.000;0.000;2023-07-16T07:29:28;7.93;;;3.70;;
80647;SDS011;70012;0.000;0.000;2023-07-16T07:31:54;7.57;;;3.17;;
80647;SDS011;70012;0.000;0.000;2023-07-16T07:34:21;7.55;;;3.92;;
80647;SDS011;70012;0.000;0.000;2023-07-16T07:36:47;6.15;;;3.90;;
80647;SDS011;70012;0.000;0.000;2023-07-16T07:39:15;8.43;;;3.88;;
80647;SDS011;70012;0.000;0.000;2023-07-16T07:41:42;8.30;;;3.53;;
80647;SDS011;70012;0.000;0.000;2023-07-16T07:44:09;7.32;;;4.35;;
80647;SDS011;70012;0.000;0.000;2023-07-16T07:46:36;7.25;;;4.00;;
80647;SDS011;70012;0.000;0.000;2023-07-16T07:49:02;5.78;;;3.80;;
80647;SDS011;70012;0.000;0.000;2023-07-16T07:51:29;5.25;;;3.58;;
80647;SDS011;70012;0.000;0.000;2023-07-16T07:53:55;8.10;;;4.05;;
80647;SDS011;70012;0.000;0.000;2023-07-16T07:56:22;8.65;;;3.42;;
80647;SDS011;70012;0.000;0.000;2023-07-16T07:58:49;7.13;;;4.07;;
80647;SDS011;70012;0.000;0.000;2023-07-16T08:01:15;10.50;;;4.60;;
80647;SDS011;70012;0.000;0.000;2023-07-16T08:03:42;8.15;;;3.95;;
80647;SDS011;70012;0.000;0.000;2023-07-16T08:06:09;6.90;;;3.88;;
80647;SDS011;70012;0.000;0.000;2023-07-16T08:08:38;7.45;;;4.47;;
80647;SDS011;70012;0.000;0.000;2023-07-16T08:11:04;5.30;;;4.00;;
80647;SDS011;70012;0.000;0.000;2023-07-16T08:13:31;8.00;;;4.82;;
80647;SDS011;70012;0.000;0.000;2023-07-16T08:15:58;6.38;;;3.85;;
80647;SDS011;70012;0.000;0.000;2023-07-16T08:18:24;7.20;;;4.72;;
80647;SDS011;70012;0.000;0.000;2023-07-16T08:20:51;5.90;;;4.20;;
80647;SDS011;70012;0.000;0.000;2023-07-16T08:23:19;10.35;;;4.70;;
80647;SDS011;70012;0.000;0.000;2023-07-16T08:25:49;8.45;;;4.13;;
80647;SDS011;70012;0.000;0.000;2023-07-16T08:28:17;6.50;;;4.30;;
80647;SDS011;70012;0.000;0.000;2023-07-16T08:30:46;9.85;;;4.30;;
80647;SDS011;70012;0.000;0.000;2023-07-16T08:33:14;7.70;;;4.22;;
80647;SDS011;70012;0.000;0.000;2023-07-16T08:35:41;6.43;;;4.20;;
80647;SDS011;70012;0.000;0.000;2023-07-16T08:38:08;6.38;;;3.92;;
80647;SDS011;70012;0.000;0.000;2023-07-16T08:40:37;8.85;;;4.53;;
80647;SDS011;70012;0.000;0.000;2023-07-16T08:43:07;7.28;;;4.40;;
80647;SDS011;70012;0.000;0.000;2023-07-16T08:45:38;8.75;;;4.15;;
80647;SDS011;70012;0.000;0.000;2023-07-16T08:48:15;7.35;;;3.67;;
80647;SDS011;70012;0.000;0.000;2023-07-16T08:50:43;5.60;;;3.78;;
80647;SDS011;70012;0.000;0.000;2023-07-16T08:53:16;5.32;;;3.15;;
80647;SDS011;70012;0.000;0.000;2023-07-16T08:55:45;6.40;;;3.78;;
80647;SDS011;70012;0.000;0.000;2023-07-16T08:58:15;8.20;;;3.60;;
80647;SDS011;70012;0.000;0.000;2023-07-16T09:00:43;5.80;;;3.28;;
80647;SDS011;70012;0.000;0.000;2023-07-16T09:03:13;5.80;;;3.60;;
80647;SDS011;70012;0.000;0.000;2023-07-16T09:05:46;6.15;;;3.63;;
80647;SDS011;70012;0.000;0.000;2023-07-16T09:08:13;6.03;;;3.13;;
80647;SDS011;70012;0.000;0.000;2023-07-16T09:10:41;9.48;;;3.70;;
80647;SDS011;70012;0.000;0.000;2023-07-16T09:13:09;4.20;;;2.72;;
80647;SDS011;70012;0.000;0.000;2023-07-16T09:15:36;7.32;;;2.95;;
80647;SDS011;70012;0.000;0.000;2023-07-16T09:18:05;4.72;;;3.08;;
80647;SDS011;70012;0.000;0.000;2023-07-16T09:20:33;5.68;;;2.75;;
80647;SDS011;70012;0.000;0.000;2023-07-16T09:23:00;4.18;;;2.80;;
80647;SDS011;70012;0.000;0.000;2023-07-16T09:25:28;7.47;;;2.78;;
80647;SDS011;70012;0.000;0.000;2023-07-16T09:27:57;5.30;;;3.28;;
80647;SDS011;70012;0.000;0.000;2023-07-16T09:30:30;7.65;;;2.80;;
80647;SDS011;70012;0.000;0.000;2023-07-16T09:32:58;5.72;;;3.28;;
80647;SDS011;70012;0.000;0.000;2023-07-16T09:35:36;5.22;;;2.92;;
80647;SDS011;70012;0.000;0.000;2023-07-16T09:38:02;3.97;;;2.65;;
80647;SDS011;70012;0.000;0.000;2023-07-16T09:40:31;4.53;;;2.85;;
80647;SDS011;70012;0.000;0.000;2023-07-16T09:42:57;4.97;;;3.35;;
80647;SDS011;70012;0.000;0.000;2023-07-16T09:45:25;7.68;;;3.22;;
80647;SDS011;70012;0.000;0.000;2023-07-16T09:47:51;6.25;;;4.00;;
80647;SDS011;70012;0.000;0.000;2023-07-16T09:50:18;5.88;;;3.90;;
80647;SDS011;70012;0.000;0.000;2023-07-16T09:52:46;5.55;;;3.72;;
80647;SDS011;70012;0.000;0.000;2023-07-16T09:55:13;6.97;;;2.88;;
80647;SDS011;70012;0.000;0.000;2023-07-16T09:57:42;7.25;;;3.25;;
80647;SDS011;70012;0.000;0.000;2023-07-16T10:00:10;6.05;;;2.92;;
80647;SDS011;70012;0.000;0.000;2023-07-16T10:02:39;7.20;;;4.13;;
80647;SDS011;70012;0.000;0.000;2023-07-16T10:05:23;5.10;;;2.78;;
80647;SDS011;70012;0.000;0.000;2023-07-16T10:07:52;5.40;;;2.70;;
80647;SDS011;70012;0.000;0.000;2023-07-16T10:10:20;6.00;;;3.55;;
80647;SDS011;70012;0.000;0.000;2023-07-16T10:13:01;4.55;;;2.80;;
80647;SDS011;70012;0.000;0.000;2023-07-16T10:15:29;9.50;;;3.33;;
80647;SDS011;70012;0.000;0.000;2023-07-16T10:17:56;6.32;;;2.88;;
80647;SDS011;70012;0.000;0.000;2023-07-16T10:20:33;6.45;;;3.55;;
80647;SDS011;70012;0.000;0.000;2023-07-16T10:23:11;5.70;;;3.10;;
80647;SDS011;70012;0.000;0.000;2023-07-16T10:26:00;7.03;;;2.60;;
80647;SDS011;70012;0.000;0.000;2023-07-16T10:28:35;5.75;;;2.75;;
80647;SDS011;70012;0.000;0.000;2023-07-16T10:31:03;5.00;;;3.25;;
80647;SDS011;70012;0.000;0.000;2023-07-16T10:33:31;4.88;;;3.10;;
80647;SDS011;70012;0.000;0.000;2023-07-16T10:35:57;5.72;;;2.92;;
80647;SDS011;70012;0.000;0.000;2023-07-16T10:38:25;4.72;;;3.13;;
80647;SDS011;70012;0.000;0.000;2023-07-16T10:40:53;5.28;;;3.22;;
80647;SDS011;70012;0.000;0.000;2023-07-16T10:43:22;7.63;;;3.10;;
80647;SDS011;70012;0.000;0.000;2023-07-16T10:45:50;5.72;;;3.00;;
80647;SDS011;70012;0.000;0.000;2023-07-16T10:48:17;5.57;;;3.10;;
80647;SDS011;70012;0.000;0.000;2023-07-16T10:50:52;5.32;;;3.13;;
80647;SDS011;70012;0.000;0.000;2023-07-16T10:53:20;5.38;;;3.30;;
80647;SDS011;70012;0.000;0.000;2023-07-16T10:55:47;5.30;;;2.88;;
80647;SDS011;70012;0.000;0.000;2023-07-16T10:58:14;4.15;;;3.20;;
80647;SDS011;70012;0.000;0.000;2023-07-16T11:00:41;10.88;;;3.25;;
80647;SDS011;70012;0.000;0.000;2023-07-16T11:03:08;6.13;;;3.35;;
80647;SDS011;70012;0.000;0.000;2023-07-16T11:05:35;4.90;;;3.38;;
80647;SDS011;70012;0.000;0.000;2023-07-16T11:08:02;5.30;;;3.13;;
80647;SDS011;70012;0.000;0.000;2023-07-16T11:10:29;7.32;;;3.35;;
80647;SDS011;70012;0.000;0.000;2023-07-16T11:12:57;9.25;;;2.85;;
80647;SDS011;70012;0.000;0.000;2023-07-16T11:15:32;6.70;;;2.88;;
80647;SDS011;70012;0.000;0.000;2023-07-16T11:18:01;5.35;;;3.13;;
80647;SDS011;70012;0.000;0.000;2023-07-16T11:20:28;4.57;;;3.08;;
80647;SDS011;70012;0.000;0.000;2023-07-16T11:22:58;5.05;;;3.00;;
80647;SDS011;70012;0.000;0.000;2023-07-16T11:25:27;4.57;;;3.17;;
80647;SDS011;70012;0.000;0.000;2023-07-16T11:27:57;4.57;;;3.13;;
80647;SDS011;70012;0.000;0.000;2023-07-16T11:30:25;4.65;;;3.08;;
80647;SDS011;70012;0.000;0.000;2023-07-16T11:32:54;6.38;;;2.80;;
80647;SDS011;70012;0.000;0.000;2023-07-16T11:35:21;7.90;;;3.17;;
80647;SDS011;70012;0.000;0.000;2023-07-16T11:37:48;6.90;;;2.97;;
80647;SDS011;70012;0.000;0.000;2023-07-16T11:40:16;4.65;;;3.05;;
80647;SDS011;70012;0.000;0.000;2023-07-16T11:42:45;4.70;;;3.00;;
80647;SDS011;70012;0.000;0.000;2023-07-16T11:45:20;4.28;;;2.83;;
80647;SDS011;70012;0.000;0.000;2023-07-16T11:47:49;6.40;;;2.95;;
80647;SDS011;70012;0.000;0.000;2023-07-16T11:50:16;4.57;;;2.90;;
80647;SDS011;70012;0.000;0.000;2023-07-16T11:52:51;7.43;;;3.55;;
80647;SDS011;70012;0.000;0.000;2023-07-16T11:55:23;5.15;;;2.80;;
80647;SDS011;70012;0.000;0.000;2023-07-16T11:57:51;4.13;;;2.88;;
80647;SDS011;70012;0.000;0.000;2023-07-16T12:00:17;5.38;;;3.85;;
80647;SDS011;70012;0.000;0.000;2023-07-16T12:02:45;4.13;;;2.88;;
80647;SDS011;70012;0.000;0.000;2023-07-16T12:05:18;4.38;;;2.85;;
80647;SDS011;70012;0.000;0.000;2023-07-16T12:07:55;5.20;;;3.50;;
80647;SDS011;70012;0.000;0.000;2023-07-16T12:10:22;5.30;;;2.85;;
80647;SDS011;70012;0.000;0.000;2023-07-16T12:12:49;4.75;;;3.05;;
80647;SDS011;70012;0.000;0.000;2023-07-16T12:15:16;5.53;;;2.78;;
80647;SDS011;70012;0.000;0.000;2023-07-16T12:17:42;4.97;;;3.28;;
80647;SDS011;70012;0.000;0.000;2023-07-16T12:20:09;8.15;;;3.22;;
80647;SDS011;70012;0.000;0.000;2023-07-16T12:22:36;6.90;;;3.25;;
80647;SDS011;70012;0.000;0.000;2023-07-16T12:25:03;5.85;;;3.42;;
80647;SDS011;70012;0.000;0.000;2023-07-16T12:27:30;5.40;;;2.90;;
80647;SDS011;70012;0.000;0.000;2023-07-16T12:29:57;6.93;;;3.05;;
80647;SDS011;70012;0.000;0.000;2023-07-16T12:32:24;5.97;;;3.38;;
80647;SDS011;70012;0.000;0.000;2023-07-16T12:34:51;5.20;;;3.15;;
80647;SDS011;70012;0.000;0.000;2023-07-16T12:37:17;5.45;;;2.90;;
80647;SDS011;70012;0.000;0.000;2023-07-16T12:39:44;7.25;;;3.60;;
80647;SDS011;70012;0.000;0.000;2023-07-16T12:42:11;4.25;;;2.63;;
80647;SDS011;70012;0.000;0.000;2023-07-16T12:44:38;7.03;;;3.03;;
80647;SDS011;70012;0.000;0.000;2023-07-16T12:47:04;4.22;;;2.65;;
80647;SDS011;70012;0.000;0.000;2023-07-16T12:49:31;4.82;;;3.03;;
80647;SDS011;70012;0.000;0.000;2023-07-16T12:51:58;5.00;;;3.00;;
80647;SDS011;70012;0.000;0.000;2023-07-16T12:54:25;5.22;;;3.28;;
80647;SDS011;70012;0.000;0.000;2023-07-16T12:56:52;6.22;;;2.75;;
80647;SDS011;70012;0.000;0.000;2023-07-16T12:59:18;5.95;;;2.92;;
80647;SDS011;70012;0.000;0.000;2023-07-16T13:01:45;8.38;;;3.17;;
80647;SDS011;70012;0.000;0.000;2023-07-16T13:04:12;5.70;;;2.80;;
80647;SDS011;70012;0.000;0.000;2023-07-16T13:06:39;6.32;;;2.80;;
80647;SDS011;70012;0.000;0.000;2023-07-16T13:09:06;4.20;;;2.70;;
80647;SDS011;70012;0.000;0.000;2023-07-16T13:11:33;4.82;;;2.97;;
80647;SDS011;70012;0.000;0.000;2023-07-16T13:14:00;4.20;;;2.63;;
80647;SDS011;70012;0.000;0.000;2023-07-16T13:16:27;4.65;;;3.00;;
80647;SDS011;70012;0.000;0.000;2023-07-16T13:18:54;4.18;;;2.47;;
80647;SDS011;70012;0.000;0.000;2023-07-16T13:21:21;5.25;;;3.13;;
80647;SDS011;70012;0.000;0.000;2023-07-16T13:23:47;4.53;;;3.05;;
80647;SDS011;70012;0.000;0.000;2023-07-16T13:26:14;6.55;;;2.85;;
80647;SDS011;70012;0.000;0.000;2023-07-16T13:28:42;5.57;;;2.75;;
80647;SDS011;70012;0.000;0.000;2023-07-16T13:31:08;6.78;;;2.80;;
80647;SDS011;70012;0.000;0.000;2023-07-16T13:33:35;4.80;;;2.90;;
80647;SDS011;70012;0.000;0.000;2023-07-16T13:36:02;5.63;;;2.50;;
80647;SDS011;70012;0.000;0.000;2023-07-16T13:38:31;5.22;;;2.63;;
80647;SDS011;70012;0.000;0.000;2023-07-16T13:40:58;5.30;;;3.15;;
80647;SDS011;70012;0.000;0.000;2023-07-16T13:43:24;5.30;;;3.10;;
80647;SDS011;70012;0.000;0.000;2023-07-16T13:45:51;5.70;;;2.85;;
80647;SDS011;70012;0.000;0.000;2023-07-16T13:48:18;5.35;;;2.90;;
80647;SDS011;70012;0.000;0.000;2023-07-16T13:50:45;6.75;;;2.92;;
80647;SDS011;70012;0.000;0.000;2023-07-16T13:53:12;5.93;;;3.08;;
80647;SDS011;70012;0.000;0.000;2023-07-16T13:55:39;5.47;;;3.03;;
80647;SDS011;70012;0.000;0.000;2023-07-16T13:58:07;5.50;;;3.30;;
80647;SDS011;70012;0.000;0.000;2023-07-16T14:00:34;5.70;;;3.20;;
80647;SDS011;70012;0.000;0.000;2023-07-16T14:03:01;5.38;;;2.63;;
80647;SDS011;70012;0.000;0.000;2023-07-16T14:05:28;6.60;;;3.20;;
80647;SDS011;70012;0.000;0.000;2023-07-16T14:07:55;5.43;;;2.80;;
80647;SDS011;70012;0.000;0.000;2023-07-16T14:10:22;5.00;;;2.80;;
80647;SDS011;70012;0.000;0.000;2023-07-16T14:12:49;4.65;;;2.92;;
80647;SDS011;70012;0.000;0.000;2023-07-16T14:15:17;5.70;;;3.00;;
80647;SDS011;70012;0.000;0.000;2023-07-16T14:17:44;6.28;;;2.90;;
80647;SDS011;70012;0.000;0.000;2023-07-16T14:20:11;4.13;;;2.90;;
80647;SDS011;70012;0.000;0.000;2023-07-16T14:22:38;4.13;;;2.85;;
80647;SDS011;70012;0.000;0.000;2023-07-16T14:25:05;4.03;;;2.85;;
80647;SDS011;70012;0.000;0.000;2023-07-16T14:27:32;5.65;;;2.90;;
80647;SDS011;70012;0.000;0.000;2023-07-16T14:29:59;8.05;;;2.92;;
80647;SDS011;70012;0.000;0.000;2023-07-16T14:32:32;6.45;;;3.13;;
80647;SDS011;70012;0.000;0.000;2023-07-16T14:35:00;4.57;;;2.78;;
80647;SDS011;70012;0.000;0.000;2023-07-16T14:37:27;5.00;;;2.70;;
80647;SDS011;70012;0.000;0.000;2023-07-16T14:39:54;7.65;;;3.13;;
80647;SDS011;70012;0.000;0.000;2023-07-16T14:42:21;5.47;;;2.63;;
80647;SDS011;70012;0.000;0.000;2023-07-16T14:44:47;4.25;;;2.80;;
80647;SDS011;70012;0.000;0.000;2023-07-16T14:47:14;5.07;;;2.42;;
80647;SDS011;70012;0.000;0.000;2023-07-16T14:49:41;5.03;;;2.83;;
80647;SDS011;70012;0.000;0.000;2023-07-16T14:52:09;5.88;;;2.78;;
80647;SDS011;70012;0.000;0.000;2023-07-16T14:54:35;6.35;;;2.85;;
80647;SDS011;70012;0.000;0.000;2023-07-16T14:57:02;5.50;;;2.63;;
80647;SDS011;70012;0.000;0.000;2023-07-16T14:59:30;5.13;;;2.90;;
80647;SDS011;70012;0.000;0.000;2023-07-16T15:01:59;5.35;;;2.67;;
80647;SDS011;70012;0.000;0.000;2023-07-16T15:04:26;4.25;;;2.90;;
80647;SDS011;70012;0.000;0.000;2023-07-16T15:06:52;5.85;;;3.05;;
80647;SDS011;70012;0.000;0.000;2023-07-16T15:09:20;5.75;;;3.30;;
80647;SDS011;70012;0.000;0.000;2023-07-16T15:11:47;3.55;;;2.58;;
80647;SDS011;70012;0.000;0.000;2023-07-16T15:14:13;3.00;;;2.40;;
80647;SDS011;70012;0.000;0.000;2023-07-16T15:16:40;5.97;;;3.10;;
80647;SDS011;70012;0.000;0.000;2023-07-16T15:19:07;5.28;;;3.13;;
80647;SDS011;70012;0.000;0.000;2023-07-16T15:21:37;5.43;;;3.08;;
80647;SDS011;70012;0.000;0.000;2023-07-16T15:24:05;5.75;;;3.20;;
80647;SDS011;70012;0.000;0.000;2023-07-16T15:26:32;6.30;;;3.33;;
80647;SDS011;70012;0.000;0.000;2023-07-16T15:28:59;5.63;;;3.15;;
80647;SDS011;70012;0.000;0.000;2023-07-16T15:31:26;7.47;;;3.22;;
80647;SDS011;70012;0.000;0.000;2023-07-16T15:33:56;3.92;;;2.58;;